Pascagoula, MS

10:34 PM CDT on August 28, 2015 (GMT -0500)
NOS_PORTS | | Change Station
CLOSE
Current Station
Personal Weather Station
Location: Pascagoula, MS
Elevation: 0 ft
Nearby Weather Stations

Elev 0 ft 30.35 °N, 88.57 °W | Updated 34 minutes ago

Clear
Clear
81.0 °F
Feels Like 81.0 °F
N
6.0
Wind Variable Wind from SSW
Gusts 8.0 mph

Today
High -- | Low -- °F
--% Chance of Precip.
Yesterday
High -- | Low -- °F
Precip. -- in
6:28 AM 7:21 PM
Waxing Gibbous, 99% visible
Pressure 30.04 in
Visibility 9.0 miles
Clouds Clear
Dew Point Not available.
Humidity Not available.
Rainfall in
Snow Depth Not available.
UV 0 out of 12
Pollen 8.00 out of 12
Air Quality Not available.
Flu Activity Not available.
METAR KPQL 290253Z AUTO 00000KT 9SM CLR 21/20 A3004 RMK AO2 SLP173 T02060200 53022 TSNO
Pressure 30.04 in
Visibility 9.0 miles
Clouds Clear
Dew Point Not available.
Humidity Not available.
Rainfall in
Snow Depth Not available.
UV 0 out of 12
Pollen 8.00 out of 12
Air Quality Not available.
Flu Activity Not available.
METAR KPQL 290253Z AUTO 00000KT 9SM CLR 21/20 A3004 RMK AO2 SLP173 T02060200 53022 TSNO

10-Day Weather Forecast

×

Almanac

Astronomy

Aug. 28, 2015 Rise Set
Actual Time
Civil Twilight
Nautical Twilight
Astronomical Twilight
Moon
Length of Visible Light
Length of Day
Tomorrow will be .
, % of the Moon is Illuminated

Today's Extremes

State Highs State Lows

Community

WunderPhotos

Upload Photos

1,850,609 photos uploaded!

WunderBlogs® & News

Nearby

Air Quality

  Air Quality AQ Index Pollutant
Not available.

Snow Depth

Station Depth Elevation

Earthquake Activity

City Distance Mag. Time & Date
Minimum magnitude displayed is 2.5.

Coastal Water Temperatures

Place Temperature

Stations

Nearby Weather Stations

Station Location Temp. Windchill Dew Point Humidity Wind Precip. Elev Updated Type